sensor_id;sensor_type;location;lat;lon;timestamp;P1;durP1;ratioP1;P2;durP2;ratioP2
13404;SDS011;6773;51.192;7.024;2022-09-12T00:02:24;21.73;;;13.70;;
13404;SDS011;6773;51.192;7.024;2022-09-12T00:04:50;20.93;;;13.33;;
13404;SDS011;6773;51.192;7.024;2022-09-12T00:07:16;20.90;;;13.33;;
13404;SDS011;6773;51.192;7.024;2022-09-12T00:09:41;23.27;;;13.80;;
13404;SDS011;6773;51.192;7.024;2022-09-12T00:12:07;18.90;;;12.53;;
13404;SDS011;6773;51.192;7.024;2022-09-12T00:14:34;21.43;;;12.67;;
13404;SDS011;6773;51.192;7.024;2022-09-12T00:17:00;20.70;;;12.57;;
13404;SDS011;6773;51.192;7.024;2022-09-12T00:19:28;19.67;;;12.40;;
13404;SDS011;6773;51.192;7.024;2022-09-12T00:21:55;19.10;;;11.93;;
13404;SDS011;6773;51.192;7.024;2022-09-12T00:24:21;19.23;;;11.67;;
13404;SDS011;6773;51.192;7.024;2022-09-12T00:26:47;18.40;;;11.27;;
13404;SDS011;6773;51.192;7.024;2022-09-12T00:29:15;20.60;;;11.87;;
13404;SDS011;6773;51.192;7.024;2022-09-12T00:31:42;17.00;;;11.30;;
13404;SDS011;6773;51.192;7.024;2022-09-12T00:34:08;19.73;;;12.80;;
13404;SDS011;6773;51.192;7.024;2022-09-12T00:36:34;20.87;;;12.40;;
13404;SDS011;6773;51.192;7.024;2022-09-12T00:39:00;19.57;;;12.50;;
13404;SDS011;6773;51.192;7.024;2022-09-12T00:41:30;23.43;;;11.73;;
13404;SDS011;6773;51.192;7.024;2022-09-12T00:43:59;21.50;;;12.37;;
13404;SDS011;6773;51.192;7.024;2022-09-12T00:46:28;19.63;;;11.50;;
13404;SDS011;6773;51.192;7.024;2022-09-12T00:51:54;16.67;;;10.67;;
13404;SDS011;6773;51.192;7.024;2022-09-12T00:54:23;19.13;;;10.77;;
13404;SDS011;6773;51.192;7.024;2022-09-12T00:56:55;18.40;;;10.90;;
13404;SDS011;6773;51.192;7.024;2022-09-12T00:59:25;16.87;;;10.67;;
13404;SDS011;6773;51.192;7.024;2022-09-12T01:01:53;18.13;;;11.20;;
13404;SDS011;6773;51.192;7.024;2022-09-12T01:04:21;19.43;;;11.47;;
13404;SDS011;6773;51.192;7.024;2022-09-12T01:06:49;15.17;;;10.73;;
13404;SDS011;6773;51.192;7.024;2022-09-12T01:09:18;16.30;;;10.43;;
13404;SDS011;6773;51.192;7.024;2022-09-12T01:11:45;17.97;;;10.23;;
13404;SDS011;6773;51.192;7.024;2022-09-12T01:14:13;15.53;;;10.40;;
13404;SDS011;6773;51.192;7.024;2022-09-12T01:16:40;16.07;;;9.87;;
13404;SDS011;6773;51.192;7.024;2022-09-12T01:22:35;18.60;;;11.33;;
13404;SDS011;6773;51.192;7.024;2022-09-12T01:31:24;16.67;;;9.80;;
13404;SDS011;6773;51.192;7.024;2022-09-12T01:34:09;16.60;;;9.97;;
13404;SDS011;6773;51.192;7.024;2022-09-12T01:36:47;15.67;;;10.27;;
13404;SDS011;6773;51.192;7.024;2022-09-12T01:41:53;16.97;;;10.17;;
13404;SDS011;6773;51.192;7.024;2022-09-12T01:44:34;15.50;;;10.00;;
13404;SDS011;6773;51.192;7.024;2022-09-12T01:47:18;14.80;;;9.77;;
13404;SDS011;6773;51.192;7.024;2022-09-12T01:55:29;14.17;;;8.33;;
13404;SDS011;6773;51.192;7.024;2022-09-12T02:00:40;15.07;;;9.30;;
13404;SDS011;6773;51.192;7.024;2022-09-12T02:03:14;13.67;;;9.63;;
13404;SDS011;6773;51.192;7.024;2022-09-12T02:05:52;13.27;;;9.60;;
13404;SDS011;6773;51.192;7.024;2022-09-12T02:08:30;14.87;;;9.50;;
13404;SDS011;6773;51.192;7.024;2022-09-12T02:11:09;16.57;;;9.57;;
13404;SDS011;6773;51.192;7.024;2022-09-12T02:16:15;13.73;;;9.37;;
13404;SDS011;6773;51.192;7.024;2022-09-12T02:18:48;15.00;;;9.67;;
13404;SDS011;6773;51.192;7.024;2022-09-12T02:21:19;14.90;;;10.00;;
13404;SDS011;6773;51.192;7.024;2022-09-12T02:23:49;13.43;;;9.43;;
13404;SDS011;6773;51.192;7.024;2022-09-12T02:26:31;11.90;;;8.80;;
13404;SDS011;6773;51.192;7.024;2022-09-12T02:29:00;14.53;;;9.47;;
13404;SDS011;6773;51.192;7.024;2022-09-12T02:31:32;15.57;;;9.63;;
13404;SDS011;6773;51.192;7.024;2022-09-12T02:39:50;15.53;;;9.60;;
13404;SDS011;6773;51.192;7.024;2022-09-12T02:42:18;14.47;;;9.13;;
13404;SDS011;6773;51.192;7.024;2022-09-12T02:44:44;15.70;;;10.27;;
13404;SDS011;6773;51.192;7.024;2022-09-12T02:47:11;12.57;;;9.00;;
13404;SDS011;6773;51.192;7.024;2022-09-12T02:49:41;13.73;;;9.57;;
13404;SDS011;6773;51.192;7.024;2022-09-12T02:52:06;14.63;;;8.87;;
13404;SDS011;6773;51.192;7.024;2022-09-12T02:54:32;12.53;;;9.53;;
13404;SDS011;6773;51.192;7.024;2022-09-12T02:56:58;17.30;;;8.87;;
13404;SDS011;6773;51.192;7.024;2022-09-12T02:59:24;15.47;;;10.00;;
13404;SDS011;6773;51.192;7.024;2022-09-12T03:02:10;14.93;;;9.53;;
13404;SDS011;6773;51.192;7.024;2022-09-12T03:23:58;13.37;;;8.93;;
13404;SDS011;6773;51.192;7.024;2022-09-12T03:29:27;11.57;;;8.40;;
13404;SDS011;6773;51.192;7.024;2022-09-12T03:31:55;12.60;;;9.53;;
13404;SDS011;6773;51.192;7.024;2022-09-12T03:34:22;13.90;;;9.47;;
13404;SDS011;6773;51.192;7.024;2022-09-12T03:36:50;13.63;;;9.13;;
13404;SDS011;6773;51.192;7.024;2022-09-12T03:39:19;13.20;;;9.37;;
13404;SDS011;6773;51.192;7.024;2022-09-12T03:41:45;11.53;;;8.63;;
13404;SDS011;6773;51.192;7.024;2022-09-12T03:44:12;11.43;;;8.83;;
13404;SDS011;6773;51.192;7.024;2022-09-12T03:46:38;14.83;;;8.47;;
13404;SDS011;6773;51.192;7.024;2022-09-12T03:49:03;13.17;;;9.37;;
13404;SDS011;6773;51.192;7.024;2022-09-12T03:51:30;12.97;;;9.00;;
13404;SDS011;6773;51.192;7.024;2022-09-12T03:53:55;12.37;;;9.07;;
13404;SDS011;6773;51.192;7.024;2022-09-12T03:56:21;10.33;;;7.93;;
13404;SDS011;6773;51.192;7.024;2022-09-12T03:58:47;13.00;;;8.80;;
13404;SDS011;6773;51.192;7.024;2022-09-12T04:01:14;13.60;;;9.77;;
13404;SDS011;6773;51.192;7.024;2022-09-12T04:03:42;12.93;;;8.93;;
13404;SDS011;6773;51.192;7.024;2022-09-12T04:06:09;10.87;;;8.07;;
13404;SDS011;6773;51.192;7.024;2022-09-12T04:08:36;12.53;;;8.43;;
13404;SDS011;6773;51.192;7.024;2022-09-12T04:11:07;12.03;;;8.17;;
13404;SDS011;6773;51.192;7.024;2022-09-12T04:13:35;13.27;;;8.57;;
13404;SDS011;6773;51.192;7.024;2022-09-12T04:16:02;11.73;;;8.50;;
13404;SDS011;6773;51.192;7.024;2022-09-12T04:18:28;11.67;;;8.63;;
13404;SDS011;6773;51.192;7.024;2022-09-12T04:20:55;9.87;;;7.83;;
13404;SDS011;6773;51.192;7.024;2022-09-12T04:23:21;10.93;;;7.40;;
13404;SDS011;6773;51.192;7.024;2022-09-12T04:25:53;9.93;;;7.80;;
13404;SDS011;6773;51.192;7.024;2022-09-12T04:28:20;12.03;;;8.23;;
13404;SDS011;6773;51.192;7.024;2022-09-12T04:30:45;12.30;;;8.20;;
13404;SDS011;6773;51.192;7.024;2022-09-12T04:33:11;9.70;;;7.63;;
13404;SDS011;6773;51.192;7.024;2022-09-12T04:35:37;12.17;;;8.27;;
13404;SDS011;6773;51.192;7.024;2022-09-12T04:38:02;13.67;;;8.10;;
13404;SDS011;6773;51.192;7.024;2022-09-12T04:40:28;11.07;;;7.80;;
13404;SDS011;6773;51.192;7.024;2022-09-12T04:42:54;11.43;;;7.10;;
13404;SDS011;6773;51.192;7.024;2022-09-12T04:45:20;11.87;;;7.73;;
13404;SDS011;6773;51.192;7.024;2022-09-12T04:47:46;13.13;;;8.83;;
13404;SDS011;6773;51.192;7.024;2022-09-12T04:50:12;11.57;;;7.80;;
13404;SDS011;6773;51.192;7.024;2022-09-12T04:52:39;11.63;;;7.63;;
13404;SDS011;6773;51.192;7.024;2022-09-12T04:55:05;10.77;;;7.70;;
13404;SDS011;6773;51.192;7.024;2022-09-12T04:57:32;10.67;;;7.73;;
13404;SDS011;6773;51.192;7.024;2022-09-12T04:59:58;9.97;;;7.70;;
13404;SDS011;6773;51.192;7.024;2022-09-12T05:02:24;11.40;;;8.03;;
13404;SDS011;6773;51.192;7.024;2022-09-12T05:04:49;10.80;;;7.50;;
13404;SDS011;6773;51.192;7.024;2022-09-12T05:07:16;10.33;;;7.77;;
13404;SDS011;6773;51.192;7.024;2022-09-12T05:09:43;10.47;;;7.43;;
13404;SDS011;6773;51.192;7.024;2022-09-12T05:12:09;13.47;;;8.03;;
13404;SDS011;6773;51.192;7.024;2022-09-12T05:14:35;9.47;;;7.23;;
13404;SDS011;6773;51.192;7.024;2022-09-12T05:17:01;10.90;;;7.43;;
13404;SDS011;6773;51.192;7.024;2022-09-12T05:19:28;9.80;;;7.30;;
13404;SDS011;6773;51.192;7.024;2022-09-12T05:21:54;11.60;;;7.57;;
13404;SDS011;6773;51.192;7.024;2022-09-12T05:24:20;10.47;;;7.93;;
13404;SDS011;6773;51.192;7.024;2022-09-12T05:26:46;9.60;;;7.53;;
13404;SDS011;6773;51.192;7.024;2022-09-12T05:29:12;11.50;;;7.37;;
13404;SDS011;6773;51.192;7.024;2022-09-12T05:31:37;10.07;;;6.70;;
13404;SDS011;6773;51.192;7.024;2022-09-12T05:34:03;10.43;;;7.87;;
13404;SDS011;6773;51.192;7.024;2022-09-12T05:36:31;14.10;;;7.57;;
13404;SDS011;6773;51.192;7.024;2022-09-12T05:39:00;10.37;;;6.73;;
13404;SDS011;6773;51.192;7.024;2022-09-12T05:41:26;9.80;;;7.03;;
13404;SDS011;6773;51.192;7.024;2022-09-12T05:43:57;10.87;;;7.07;;
13404;SDS011;6773;51.192;7.024;2022-09-12T05:46:25;8.70;;;7.03;;
13404;SDS011;6773;51.192;7.024;2022-09-12T05:48:53;9.00;;;6.93;;
13404;SDS011;6773;51.192;7.024;2022-09-12T05:51:20;10.80;;;7.57;;
13404;SDS011;6773;51.192;7.024;2022-09-12T05:53:57;10.93;;;7.27;;
13404;SDS011;6773;51.192;7.024;2022-09-12T05:56:25;10.10;;;6.97;;
13404;SDS011;6773;51.192;7.024;2022-09-12T05:59:05;10.57;;;7.10;;
13404;SDS011;6773;51.192;7.024;2022-09-12T06:01:35;11.00;;;7.10;;
13404;SDS011;6773;51.192;7.024;2022-09-12T06:04:03;10.57;;;6.60;;
13404;SDS011;6773;51.192;7.024;2022-09-12T06:06:30;8.53;;;6.60;;
13404;SDS011;6773;51.192;7.024;2022-09-12T06:09:00;8.90;;;6.50;;
13404;SDS011;6773;51.192;7.024;2022-09-12T06:11:28;8.27;;;6.30;;
13404;SDS011;6773;51.192;7.024;2022-09-12T06:13:55;11.70;;;6.50;;
13404;SDS011;6773;51.192;7.024;2022-09-12T06:16:23;10.50;;;7.37;;
13404;SDS011;6773;51.192;7.024;2022-09-12T06:18:51;9.77;;;6.93;;
13404;SDS011;6773;51.192;7.024;2022-09-12T06:21:18;11.67;;;7.30;;
13404;SDS011;6773;51.192;7.024;2022-09-12T06:23:45;11.67;;;7.10;;
13404;SDS011;6773;51.192;7.024;2022-09-12T06:26:12;12.57;;;7.33;;
13404;SDS011;6773;51.192;7.024;2022-09-12T06:28:39;8.33;;;6.30;;
13404;SDS011;6773;51.192;7.024;2022-09-12T06:31:09;9.37;;;6.60;;
13404;SDS011;6773;51.192;7.024;2022-09-12T06:33:36;7.70;;;6.47;;
13404;SDS011;6773;51.192;7.024;2022-09-12T06:36:04;10.13;;;6.80;;
13404;SDS011;6773;51.192;7.024;2022-09-12T06:38:32;10.70;;;6.77;;
13404;SDS011;6773;51.192;7.024;2022-09-12T06:40:58;8.43;;;6.30;;
13404;SDS011;6773;51.192;7.024;2022-09-12T06:43:24;10.02;;;6.18;;
13404;SDS011;6773;51.192;7.024;2022-09-12T06:45:51;10.88;;;6.72;;
13404;SDS011;6773;51.192;7.024;2022-09-12T06:48:17;10.35;;;7.53;;
13404;SDS011;6773;51.192;7.024;2022-09-12T06:50:42;9.60;;;7.40;;
13404;SDS011;6773;51.192;7.024;2022-09-12T06:53:08;9.95;;;6.70;;
13404;SDS011;6773;51.192;7.024;2022-09-12T06:55:34;11.23;;;6.40;;
13404;SDS011;6773;51.192;7.024;2022-09-12T06:58:00;7.87;;;5.93;;
13404;SDS011;6773;51.192;7.024;2022-09-12T07:00:25;10.27;;;6.97;;
13404;SDS011;6773;51.192;7.024;2022-09-12T07:02:55;10.23;;;7.03;;
13404;SDS011;6773;51.192;7.024;2022-09-12T07:05:20;8.15;;;6.82;;
13404;SDS011;6773;51.192;7.024;2022-09-12T07:07:46;8.50;;;6.83;;
13404;SDS011;6773;51.192;7.024;2022-09-12T07:10:12;8.00;;;6.85;;
13404;SDS011;6773;51.192;7.024;2022-09-12T07:12:38;9.07;;;6.97;;
13404;SDS011;6773;51.192;7.024;2022-09-12T07:15:04;8.38;;;6.60;;
13404;SDS011;6773;51.192;7.024;2022-09-12T07:17:30;10.50;;;6.40;;
13404;SDS011;6773;51.192;7.024;2022-09-12T07:19:55;8.75;;;6.25;;
13404;SDS011;6773;51.192;7.024;2022-09-12T07:22:21;8.52;;;6.40;;
13404;SDS011;6773;51.192;7.024;2022-09-12T07:24:46;9.98;;;7.00;;
13404;SDS011;6773;51.192;7.024;2022-09-12T07:27:12;10.10;;;7.32;;
13404;SDS011;6773;51.192;7.024;2022-09-12T07:29:38;12.50;;;7.18;;
13404;SDS011;6773;51.192;7.024;2022-09-12T07:32:04;8.30;;;6.65;;
13404;SDS011;6773;51.192;7.024;2022-09-12T07:34:30;10.40;;;6.80;;
13404;SDS011;6773;51.192;7.024;2022-09-12T07:36:56;8.77;;;6.93;;
13404;SDS011;6773;51.192;7.024;2022-09-12T07:39:22;11.30;;;6.57;;
13404;SDS011;6773;51.192;7.024;2022-09-12T07:41:48;11.52;;;7.50;;
13404;SDS011;6773;51.192;7.024;2022-09-12T07:44:13;11.82;;;7.55;;
13404;SDS011;6773;51.192;7.024;2022-09-12T07:46:39;12.63;;;7.45;;
13404;SDS011;6773;51.192;7.024;2022-09-12T07:49:04;11.57;;;7.57;;
13404;SDS011;6773;51.192;7.024;2022-09-12T07:51:30;15.05;;;7.45;;
13404;SDS011;6773;51.192;7.024;2022-09-12T07:53:56;9.90;;;7.05;;
13404;SDS011;6773;51.192;7.024;2022-09-12T07:56:23;9.93;;;6.88;;
13404;SDS011;6773;51.192;7.024;2022-09-12T07:58:50;9.63;;;7.50;;
13404;SDS011;6773;51.192;7.024;2022-09-12T08:01:17;11.07;;;7.53;;
13404;SDS011;6773;51.192;7.024;2022-09-12T08:03:45;8.65;;;6.72;;
13404;SDS011;6773;51.192;7.024;2022-09-12T08:06:13;9.35;;;6.60;;
13404;SDS011;6773;51.192;7.024;2022-09-12T08:08:41;9.07;;;6.72;;
13404;SDS011;6773;51.192;7.024;2022-09-12T08:11:08;8.15;;;6.50;;
13404;SDS011;6773;51.192;7.024;2022-09-12T08:13:36;8.65;;;6.68;;
13404;SDS011;6773;51.192;7.024;2022-09-12T08:16:04;9.05;;;6.40;;
13404;SDS011;6773;51.192;7.024;2022-09-12T08:18:33;10.52;;;6.80;;
13404;SDS011;6773;51.192;7.024;2022-09-12T08:21:04;8.05;;;6.25;;
13404;SDS011;6773;51.192;7.024;2022-09-12T08:23:38;9.10;;;6.97;;
13404;SDS011;6773;51.192;7.024;2022-09-12T08:26:05;7.18;;;5.63;;
13404;SDS011;6773;51.192;7.024;2022-09-12T08:28:31;8.65;;;6.70;;
13404;SDS011;6773;51.192;7.024;2022-09-12T08:31:01;8.45;;;6.22;;
13404;SDS011;6773;51.192;7.024;2022-09-12T08:33:28;8.10;;;5.47;;
13404;SDS011;6773;51.192;7.024;2022-09-12T08:38:54;6.47;;;5.57;;
13404;SDS011;6773;51.192;7.024;2022-09-12T08:52:28;9.75;;;5.28;;
13404;SDS011;6773;51.192;7.024;2022-09-12T08:54:59;9.55;;;5.60;;
13404;SDS011;6773;51.192;7.024;2022-09-12T08:57:26;5.13;;;4.63;;
13404;SDS011;6773;51.192;7.024;2022-09-12T08:59:53;8.13;;;5.43;;
13404;SDS011;6773;51.192;7.024;2022-09-12T09:08:13;6.10;;;4.43;;
13404;SDS011;6773;51.192;7.024;2022-09-12T09:16:49;4.38;;;3.85;;
13404;SDS011;6773;51.192;7.024;2022-09-12T09:19:19;7.38;;;4.20;;
13404;SDS011;6773;51.192;7.024;2022-09-12T09:24:28;5.30;;;3.55;;
13404;SDS011;6773;51.192;7.024;2022-09-12T09:27:03;3.55;;;3.25;;
13404;SDS011;6773;51.192;7.024;2022-09-12T09:29:40;4.43;;;3.63;;
13404;SDS011;6773;51.192;7.024;2022-09-12T09:32:16;6.20;;;3.55;;
13404;SDS011;6773;51.192;7.024;2022-09-12T09:34:49;3.65;;;3.30;;
13404;SDS011;6773;51.192;7.024;2022-09-12T09:43:21;4.05;;;3.63;;
13404;SDS011;6773;51.192;7.024;2022-09-12T09:45:50;4.68;;;3.55;;
13404;SDS011;6773;51.192;7.024;2022-09-12T09:50:47;4.65;;;3.35;;
13404;SDS011;6773;51.192;7.024;2022-09-12T09:53:20;3.70;;;3.25;;
13404;SDS011;6773;51.192;7.024;2022-09-12T09:56:45;4.38;;;3.03;;
13404;SDS011;6773;51.192;7.024;2022-09-12T09:58:53;5.30;;;3.47;;
13404;SDS011;6773;51.192;7.024;2022-09-12T10:01:19;4.18;;;3.70;;
13404;SDS011;6773;51.192;7.024;2022-09-12T10:03:51;3.70;;;3.40;;
13404;SDS011;6773;51.192;7.024;2022-09-12T10:08:47;3.70;;;2.95;;
13404;SDS011;6773;51.192;7.024;2022-09-12T10:16:31;3.72;;;3.15;;
13404;SDS011;6773;51.192;7.024;2022-09-12T10:19:18;4.32;;;3.20;;
13404;SDS011;6773;51.192;7.024;2022-09-12T10:21:50;3.35;;;3.05;;
13404;SDS011;6773;51.192;7.024;2022-09-12T10:24:22;4.00;;;3.08;;
13404;SDS011;6773;51.192;7.024;2022-09-12T10:26:50;5.72;;;3.53;;
13404;SDS011;6773;51.192;7.024;2022-09-12T10:29:25;4.40;;;3.00;;
13404;SDS011;6773;51.192;7.024;2022-09-12T10:31:55;2.95;;;2.65;;
13404;SDS011;6773;51.192;7.024;2022-09-12T10:37:08;2.92;;;2.70;;
13404;SDS011;6773;51.192;7.024;2022-09-12T10:39:47;3.13;;;2.83;;
13404;SDS011;6773;51.192;7.024;2022-09-12T10:42:17;4.47;;;2.55;;
13404;SDS011;6773;51.192;7.024;2022-09-12T10:45:26;4.10;;;2.53;;
13404;SDS011;6773;51.192;7.024;2022-09-12T10:48:48;2.95;;;2.75;;
13404;SDS011;6773;51.192;7.024;2022-09-12T10:50:53;4.28;;;2.75;;
13404;SDS011;6773;51.192;7.024;2022-09-12T10:53:20;3.08;;;2.80;;
13404;SDS011;6773;51.192;7.024;2022-09-12T11:06:29;2.83;;;2.40;;
13404;SDS011;6773;51.192;7.024;2022-09-12T11:31:23;3.78;;;2.70;;
13404;SDS011;6773;51.192;7.024;2022-09-12T11:34:15;2.70;;;2.28;;
13404;SDS011;6773;51.192;7.024;2022-09-12T11:36:58;2.33;;;2.13;;
13404;SDS011;6773;51.192;7.024;2022-09-12T11:39:47;2.22;;;1.98;;
13404;SDS011;6773;51.192;7.024;2022-09-12T11:42:21;3.05;;;2.35;;
13404;SDS011;6773;51.192;7.024;2022-09-12T11:45:01;2.80;;;2.60;;
13404;SDS011;6773;51.192;7.024;2022-09-12T11:47:36;2.53;;;2.25;;
13404;SDS011;6773;51.192;7.024;2022-09-12T11:50:05;2.40;;;2.20;;
13404;SDS011;6773;51.192;7.024;2022-09-12T11:52:47;2.70;;;2.50;;
13404;SDS011;6773;51.192;7.024;2022-09-12T11:55:16;2.90;;;2.38;;
13404;SDS011;6773;51.192;7.024;2022-09-12T11:57:53;2.85;;;2.65;;
13404;SDS011;6773;51.192;7.024;2022-09-12T12:00:31;2.50;;;2.20;;
13404;SDS011;6773;51.192;7.024;2022-09-12T12:03:03;3.03;;;2.72;;
13404;SDS011;6773;51.192;7.024;2022-09-12T12:05:43;2.63;;;2.15;;
13404;SDS011;6773;51.192;7.024;2022-09-12T12:08:13;2.38;;;2.17;;
13404;SDS011;6773;51.192;7.024;2022-09-12T12:10:40;2.08;;;1.98;;
13404;SDS011;6773;51.192;7.024;2022-09-12T12:16:20;2.63;;;2.30;;
13404;SDS011;6773;51.192;7.024;2022-09-12T12:18:43;2.67;;;2.47;;
13404;SDS011;6773;51.192;7.024;2022-09-12T12:26:44;3.83;;;2.20;;
13404;SDS011;6773;51.192;7.024;2022-09-12T12:32:17;4.30;;;2.17;;
13404;SDS011;6773;51.192;7.024;2022-09-12T12:34:45;2.70;;;2.50;;
13404;SDS011;6773;51.192;7.024;2022-09-12T12:45:02;3.33;;;2.28;;
13404;SDS011;6773;51.192;7.024;2022-09-12T12:47:42;2.97;;;2.20;;
13404;SDS011;6773;51.192;7.024;2022-09-12T12:55:25;2.65;;;2.30;;
13404;SDS011;6773;51.192;7.024;2022-09-12T12:58:02;2.88;;;2.20;;
13404;SDS011;6773;51.192;7.024;2022-09-12T13:00:42;2.60;;;2.38;;
13404;SDS011;6773;51.192;7.024;2022-09-12T13:03:16;2.53;;;2.33;;
13404;SDS011;6773;51.192;7.024;2022-09-12T13:05:53;2.47;;;2.28;;
13404;SDS011;6773;51.192;7.024;2022-09-12T13:08:28;2.65;;;2.20;;
13404;SDS011;6773;51.192;7.024;2022-09-12T13:13:36;2.47;;;2.25;;
13404;SDS011;6773;51.192;7.024;2022-09-12T13:16:10;2.20;;;2.00;;
13404;SDS011;6773;51.192;7.024;2022-09-12T13:18:52;3.85;;;2.40;;
13404;SDS011;6773;51.192;7.024;2022-09-12T13:21:19;2.67;;;2.33;;
13404;SDS011;6773;51.192;7.024;2022-09-12T13:24:10;2.92;;;2.33;;
13404;SDS011;6773;51.192;7.024;2022-09-12T13:26:40;2.42;;;2.22;;
13404;SDS011;6773;51.192;7.024;2022-09-12T13:29:41;2.50;;;2.30;;
13404;SDS011;6773;51.192;7.024;2022-09-12T13:32:00;2.30;;;2.10;;
13404;SDS011;6773;51.192;7.024;2022-09-12T13:34:28;3.95;;;2.10;;
13404;SDS011;6773;51.192;7.024;2022-09-12T13:45:19;1.92;;;1.83;;
13404;SDS011;6773;51.192;7.024;2022-09-12T13:47:50;2.40;;;2.20;;
13404;SDS011;6773;51.192;7.024;2022-09-12T13:50:21;2.95;;;2.13;;
13404;SDS011;6773;51.192;7.024;2022-09-12T13:52:51;3.97;;;2.47;;
13404;SDS011;6773;51.192;7.024;2022-09-12T13:55:36;4.88;;;2.17;;
13404;SDS011;6773;51.192;7.024;2022-09-12T14:00:44;2.38;;;2.17;;
13404;SDS011;6773;51.192;7.024;2022-09-12T14:06:25;2.40;;;2.10;;
13404;SDS011;6773;51.192;7.024;2022-09-12T14:08:51;2.15;;;1.90;;
13404;SDS011;6773;51.192;7.024;2022-09-12T14:11:25;2.30;;;2.10;;
13404;SDS011;6773;51.192;7.024;2022-09-12T14:13:52;2.55;;;2.15;;
13404;SDS011;6773;51.192;7.024;2022-09-12T14:16:19;2.60;;;2.10;;
13404;SDS011;6773;51.192;7.024;2022-09-12T14:18:47;2.08;;;1.98;;
13404;SDS011;6773;51.192;7.024;2022-09-12T14:23:44;2.80;;;2.08;;
13404;SDS011;6773;51.192;7.024;2022-09-12T14:26:12;2.15;;;1.98;;
13404;SDS011;6773;51.192;7.024;2022-09-12T14:28:41;2.17;;;1.98;;
13404;SDS011;6773;51.192;7.024;2022-09-12T14:39:15;2.45;;;2.25;;
13404;SDS011;6773;51.192;7.024;2022-09-12T14:41:46;3.38;;;1.90;;
13404;SDS011;6773;51.192;7.024;2022-09-12T14:44:20;1.88;;;1.77;;
13404;SDS011;6773;51.192;7.024;2022-09-12T14:46:49;2.90;;;2.30;;
13404;SDS011;6773;51.192;7.024;2022-09-12T14:49:17;3.60;;;1.95;;
13404;SDS011;6773;51.192;7.024;2022-09-12T14:52:43;2.28;;;2.08;;
13404;SDS011;6773;51.192;7.024;2022-09-12T14:54:56;3.15;;;2.22;;
13404;SDS011;6773;51.192;7.024;2022-09-12T15:02:37;2.10;;;1.90;;
13404;SDS011;6773;51.192;7.024;2022-09-12T15:07:43;2.00;;;1.80;;
13404;SDS011;6773;51.192;7.024;2022-09-12T15:10:36;2.22;;;2.03;;
13404;SDS011;6773;51.192;7.024;2022-09-12T15:15:38;2.00;;;1.88;;
13404;SDS011;6773;51.192;7.024;2022-09-12T15:18:05;2.30;;;2.10;;
13404;SDS011;6773;51.192;7.024;2022-09-12T15:20:31;3.17;;;2.30;;
13404;SDS011;6773;51.192;7.024;2022-09-12T15:22:59;2.80;;;2.03;;
13404;SDS011;6773;51.192;7.024;2022-09-12T15:25:25;2.78;;;1.75;;
13404;SDS011;6773;51.192;7.024;2022-09-12T15:27:51;2.08;;;1.98;;
13404;SDS011;6773;51.192;7.024;2022-09-12T15:30:17;2.25;;;2.03;;
13404;SDS011;6773;51.192;7.024;2022-09-12T15:32:43;2.20;;;2.00;;
13404;SDS011;6773;51.192;7.024;2022-09-12T15:35:11;2.28;;;2.08;;
13404;SDS011;6773;51.192;7.024;2022-09-12T15:37:38;2.45;;;2.22;;
13404;SDS011;6773;51.192;7.024;2022-09-12T15:40:04;2.85;;;2.15;;
13404;SDS011;6773;51.192;7.024;2022-09-12T15:42:30;3.55;;;1.92;;
13404;SDS011;6773;51.192;7.024;2022-09-12T15:44:56;2.75;;;2.10;;
13404;SDS011;6773;51.192;7.024;2022-09-12T15:47:21;2.03;;;1.92;;
13404;SDS011;6773;51.192;7.024;2022-09-12T15:49:47;2.67;;;2.28;;
13404;SDS011;6773;51.192;7.024;2022-09-12T15:52:13;2.10;;;1.90;;
13404;SDS011;6773;51.192;7.024;2022-09-12T15:54:40;1.80;;;1.70;;
13404;SDS011;6773;51.192;7.024;2022-09-12T15:57:06;2.10;;;2.00;;
13404;SDS011;6773;51.192;7.024;2022-09-12T15:59:32;1.90;;;1.80;;
13404;SDS011;6773;51.192;7.024;2022-09-12T16:01:58;2.60;;;2.20;;
13404;SDS011;6773;51.192;7.024;2022-09-12T16:04:25;2.22;;;2.03;;
13404;SDS011;6773;51.192;7.024;2022-09-12T16:06:54;4.63;;;2.20;;
13404;SDS011;6773;51.192;7.024;2022-09-12T16:09:20;4.20;;;2.20;;
13404;SDS011;6773;51.192;7.024;2022-09-12T16:11:46;2.80;;;2.50;;
13404;SDS011;6773;51.192;7.024;2022-09-12T16:14:13;2.50;;;2.30;;
13404;SDS011;6773;51.192;7.024;2022-09-12T16:16:40;1.92;;;1.77;;
13404;SDS011;6773;51.192;7.024;2022-09-12T16:19:06;1.80;;;1.70;;
13404;SDS011;6773;51.192;7.024;2022-09-12T16:21:36;2.15;;;1.95;;
13404;SDS011;6773;51.192;7.024;2022-09-12T16:24:02;3.22;;;2.03;;
13404;SDS011;6773;51.192;7.024;2022-09-12T16:26:28;2.42;;;2.08;;
13404;SDS011;6773;51.192;7.024;2022-09-12T16:28:54;2.42;;;2.17;;
13404;SDS011;6773;51.192;7.024;2022-09-12T16:31:20;2.20;;;2.00;;
13404;SDS011;6773;51.192;7.024;2022-09-12T16:33:46;3.75;;;2.08;;
13404;SDS011;6773;51.192;7.024;2022-09-12T16:36:13;2.45;;;1.98;;
13404;SDS011;6773;51.192;7.024;2022-09-12T16:38:41;2.95;;;2.10;;
13404;SDS011;6773;51.192;7.024;2022-09-12T16:41:14;2.13;;;2.00;;
13404;SDS011;6773;51.192;7.024;2022-09-12T16:43:41;3.28;;;2.30;;
13404;SDS011;6773;51.192;7.024;2022-09-12T16:46:09;3.78;;;2.50;;
13404;SDS011;6773;51.192;7.024;2022-09-12T16:48:36;3.28;;;2.50;;
13404;SDS011;6773;51.192;7.024;2022-09-12T16:51:05;4.43;;;2.30;;
13404;SDS011;6773;51.192;7.024;2022-09-12T16:53:34;2.72;;;2.20;;
13404;SDS011;6773;51.192;7.024;2022-09-12T16:56:02;2.30;;;2.10;;
13404;SDS011;6773;51.192;7.024;2022-09-12T16:58:32;5.60;;;2.40;;
13404;SDS011;6773;51.192;7.024;2022-09-12T17:01:05;2.20;;;2.00;;
13404;SDS011;6773;51.192;7.024;2022-09-12T17:03:33;3.65;;;2.55;;
13404;SDS011;6773;51.192;7.024;2022-09-12T17:06:04;3.15;;;2.28;;
13404;SDS011;6773;51.192;7.024;2022-09-12T17:08:34;2.75;;;2.28;;
13404;SDS011;6773;51.192;7.024;2022-09-12T17:11:05;2.95;;;2.50;;
13404;SDS011;6773;51.192;7.024;2022-09-12T17:13:36;2.80;;;2.40;;
13404;SDS011;6773;51.192;7.024;2022-09-12T17:16:04;4.53;;;2.42;;
13404;SDS011;6773;51.192;7.024;2022-09-12T17:18:35;2.47;;;2.28;;
13404;SDS011;6773;51.192;7.024;2022-09-12T17:21:01;2.40;;;2.20;;
13404;SDS011;6773;51.192;7.024;2022-09-12T17:23:27;2.45;;;2.25;;
13404;SDS011;6773;51.192;7.024;2022-09-12T17:25:53;2.72;;;2.53;;
13404;SDS011;6773;51.192;7.024;2022-09-12T17:28:19;2.65;;;2.45;;
13404;SDS011;6773;51.192;7.024;2022-09-12T17:30:45;2.40;;;2.20;;
13404;SDS011;6773;51.192;7.024;2022-09-12T17:33:11;2.85;;;2.28;;
13404;SDS011;6773;51.192;7.024;2022-09-12T17:35:38;2.78;;;2.50;;
13404;SDS011;6773;51.192;7.024;2022-09-12T17:38:06;2.50;;;2.30;;
13404;SDS011;6773;51.192;7.024;2022-09-12T17:40:33;3.17;;;2.45;;
13404;SDS011;6773;51.192;7.024;2022-09-12T17:43:00;3.42;;;2.50;;
13404;SDS011;6773;51.192;7.024;2022-09-12T17:45:26;2.75;;;2.38;;
13404;SDS011;6773;51.192;7.024;2022-09-12T17:47:53;2.40;;;2.20;;
13404;SDS011;6773;51.192;7.024;2022-09-12T17:50:23;2.50;;;2.30;;
13404;SDS011;6773;51.192;7.024;2022-09-12T17:52:49;2.58;;;2.38;;
13404;SDS011;6773;51.192;7.024;2022-09-12T17:55:15;2.88;;;2.67;;
13404;SDS011;6773;51.192;7.024;2022-09-12T17:57:41;2.67;;;2.40;;
13404;SDS011;6773;51.192;7.024;2022-09-12T18:00:09;2.70;;;2.50;;
13404;SDS011;6773;51.192;7.024;2022-09-12T18:02:35;2.83;;;2.58;;
13404;SDS011;6773;51.192;7.024;2022-09-12T18:05:01;3.38;;;2.45;;
13404;SDS011;6773;51.192;7.024;2022-09-12T18:07:30;2.72;;;2.53;;
13404;SDS011;6773;51.192;7.024;2022-09-12T18:09:57;2.80;;;2.60;;
13404;SDS011;6773;51.192;7.024;2022-09-12T18:12:23;2.70;;;2.50;;
13404;SDS011;6773;51.192;7.024;2022-09-12T18:14:50;2.80;;;2.55;;
13404;SDS011;6773;51.192;7.024;2022-09-12T18:17:15;3.33;;;2.92;;
13404;SDS011;6773;51.192;7.024;2022-09-12T18:19:42;3.35;;;2.40;;
13404;SDS011;6773;51.192;7.024;2022-09-12T18:22:07;3.65;;;2.35;;
13404;SDS011;6773;51.192;7.024;2022-09-12T18:24:33;2.88;;;2.65;;
13404;SDS011;6773;51.192;7.024;2022-09-12T18:26:59;4.32;;;2.80;;